Time;durP1;ratioP1;P1;durP2;ratioP2;P2;SDS_P1;SDS_P2;PMS_P1;PMS_P2;Temp;Humidity;BMP_temperature;BMP_pressure;BME280_temperature;BME280_humidity;BME280_pressure;Samples;Min_cycle;Max_cycle;Signal;HPM_P1;HPM_P2
2023/12/22 00:00:41;;;;;;;46.10;21.40;;;;;;;5.19;86.96;97615.36;79442;1297;3019248;-68
2023/12/22 00:03:07;;;;;;;50.50;23.40;;;;;;;5.62;85.39;97618.63;79539;1297;3013073;-68
2023/12/22 00:05:35;;;;;;;47.80;22.40;;;;;;;6.18;82.81;97619.63;78185;1298;3027185;-70
2023/12/22 00:08:02;;;;;;;46.50;22.10;;;;;;;6.23;81.61;97623.11;79563;1297;3018567;-67
2023/12/22 00:10:29;;;;;;;61.10;27.20;;;;;;;6.17;81.55;97625.57;79349;1300;3011779;-67
2023/12/22 00:12:57;;;;;;;55.80;27.40;;;;;;;5.87;81.98;97616.91;78244;1300;3026542;-67
2023/12/22 00:15:24;;;;;;;68.70;30.90;;;;;;;5.61;82.99;97612.64;79369;1297;3013386;-70
2023/12/22 00:17:50;;;;;;;66.20;28.90;;;;;;;5.37;84.19;97613.09;79482;1297;3011618;-68
2023/12/22 00:20:19;;;;;;;73.40;29.70;;;;;;;5.21;84.75;97611.09;78296;1298;3027062;-67
2023/12/22 00:22:45;;;;;;;67.50;29.00;;;;;;;5.21;84.26;97603.27;79540;1301;3013098;-70
2023/12/22 00:25:12;;;;;;;68.50;30.10;;;;;;;5.03;85.06;97596.31;79372;1300;3011609;-71
2023/12/22 00:27:40;;;;;;;69.40;28.90;;;;;;;4.91;85.92;97596.23;78317;1300;3026550;-69
2023/12/22 00:30:07;;;;;;;204.70;69.90;;;;;;;5.23;85.50;97591.33;79411;1297;3013025;-69
2023/12/22 00:32:34;;;;;;;201.50;64.40;;;;;;;5.72;83.84;97588.08;79398;1297;3011755;-68
2023/12/22 00:35:04;;;;;;;224.20;84.00;;;;;;;5.72;83.03;97585.15;78142;1301;3053882;-68
2023/12/22 00:37:31;;;;;;;183.00;68.20;;;;;;;5.35;84.24;97583.16;79377;1300;3013036;-69
2023/12/22 00:39:58;;;;;;;89.00;37.80;;;;;;;5.12;85.00;97585.77;79301;1301;3013149;-69
2023/12/22 00:42:26;;;;;;;94.60;40.90;;;;;;;4.96;85.87;97585.15;78238;1298;3068181;-70
2023/12/22 00:44:53;;;;;;;77.10;37.30;;;;;;;4.78;86.33;97580.65;79304;1297;3013442;-69
2023/12/22 00:47:20;;;;;;;78.00;35.40;;;;;;;4.58;86.94;97578.33;79269;1297;3013283;-69
2023/12/22 00:49:48;;;;;;;70.80;36.20;;;;;;;4.43;87.65;97580.70;78277;1297;3025392;-68
2023/12/22 00:52:14;;;;;;;59.70;25.60;;;;;;;4.27;88.11;97579.79;79517;1298;3012932;-69
2023/12/22 00:54:42;;;;;;;63.40;28.90;;;;;;;4.66;87.78;97568.76;79422;1300;3011488;-69
2023/12/22 00:57:11;;;;;;;113.50;39.60;;;;;;;5.27;85.58;97569.47;78285;1300;3068539;-69
2023/12/22 00:59:38;;;;;;;96.40;38.70;;;;;;;5.23;84.40;97563.38;79404;1298;3013611;-67
2023/12/22 01:02:05;;;;;;;84.40;37.00;;;;;;;5.10;84.28;97552.97;79359;1297;3011304;-70
2023/12/22 01:04:33;;;;;;;70.60;31.60;;;;;;;4.83;84.95;97544.92;78118;1300;3052501;-67
2023/12/22 01:07:00;;;;;;;72.40;31.90;;;;;;;4.82;85.13;97542.55;79775;1297;3013772;-67
2023/12/22 01:09:26;;;;;;;63.10;29.70;;;;;;;4.70;84.34;97544.57;79700;1294;3011555;-68
2023/12/22 01:11:54;;;;;;;56.20;24.60;;;;;;;4.48;84.99;97546.54;78555;1297;3026116;-68
2023/12/22 01:14:21;;;;;;;47.10;20.40;;;;;;;4.37;84.94;97543.10;79847;1293;3015486;-66
2023/12/22 01:16:47;;;;;;;33.10;14.80;;;;;;;4.10;85.84;97546.73;79680;1292;3011609;-67
2023/12/22 01:19:15;;;;;;;36.30;15.50;;;;;;;4.68;85.97;97541.91;78438;1292;3026081;-69
2023/12/22 01:21:42;;;;;;;38.40;18.90;;;;;;;5.12;83.80;97540.30;79699;1296;3015867;-68
2023/12/22 01:24:09;;;;;;;38.40;18.60;;;;;;;5.01;83.55;97538.65;79787;1296;3011626;-68
2023/12/22 01:26:37;;;;;;;40.40;20.70;;;;;;;4.93;83.70;97536.27;78561;1297;3026314;-65
2023/12/22 01:29:04;;;;;;;39.30;20.60;;;;;;;4.71;83.51;97539.61;79740;1294;3013315;-65
2023/12/22 01:31:31;;;;;;;36.80;18.80;;;;;;;4.37;84.24;97545.36;79670;1294;3013054;-68
2023/12/22 01:33:59;;;;;;;33.00;18.70;;;;;;;4.10;85.77;97536.71;78455;1292;3052670;-68
2023/12/22 01:36:25;;;;;;;37.50;18.80;;;;;;;3.96;86.44;97531.23;79783;1297;3013249;-67
2023/12/22 01:38:52;;;;;;;38.90;19.30;;;;;;;3.74;87.20;97523.94;79713;1296;3013016;-68
2023/12/22 01:41:20;;;;;;;23.10;13.70;;;;;;;3.64;88.08;97523.39;78593;1292;3024613;-69
2023/12/22 01:43:46;;;;;;;22.10;13.30;;;;;;;4.07;87.79;97514.38;79899;1292;3018646;-70
2023/12/22 01:46:13;;;;;;;20.80;13.00;;;;;;;4.57;86.06;97512.16;79923;1296;3012959;-65
2023/12/22 01:48:41;;;;;;;21.80;13.10;;;;;;;4.47;85.01;97507.80;78435;1295;3026868;-65
2023/12/22 01:51:08;;;;;;;20.10;12.30;;;;;;;4.23;84.89;97510.22;79805;1297;3013292;-69
2023/12/22 01:53:35;;;;;;;22.50;14.10;;;;;;;4.05;85.77;97507.39;79572;1297;3011438;-67
2023/12/22 01:56:03;;;;;;;30.40;15.50;;;;;;;3.91;85.90;97508.48;78671;1292;3026056;-68
2023/12/22 01:58:31;;;;;;;30.40;15.80;;;;;;;3.64;86.67;97502.45;79727;1292;3014617;-67
2023/12/22 02:01:03;;;;;;;32.00;17.00;;;;;;;3.46;87.55;97502.17;78317;1297;3048142;-66
2023/12/22 02:03:30;;;;;;;27.60;14.50;;;;;;;3.36;88.66;97499.65;79560;1295;3012763;-68
2023/12/22 02:06:00;;;;;;;29.70;16.90;;;;;;;3.78;88.32;97496.19;79700;1294;3011646;-69
2023/12/22 02:08:28;;;;;;;26.50;15.00;;;;;;;4.28;86.69;97494.27;78268;1295;3051341;-65
2023/12/22 02:10:54;;;;;;;32.60;16.60;;;;;;;4.32;86.35;97489.15;80000;1293;3013410;-68
2023/12/22 02:13:21;;;;;;;28.70;15.30;;;;;;;4.24;86.90;97489.36;79841;1291;3013246;-67
2023/12/22 02:15:54;;;;;;;32.50;16.10;;;;;;;4.15;87.45;97485.45;78467;1292;3028916;-66
2023/12/22 02:18:23;;;;;;;32.60;17.50;;;;;;;4.07;87.71;97485.83;79901;1292;3011908;-67
2023/12/22 02:20:52;;;;;;;41.30;18.70;;;;;;;3.93;88.24;97486.34;78594;1297;3049396;-66
2023/12/22 02:23:19;;;;;;;45.00;20.20;;;;;;;3.77;88.78;97485.84;79810;1295;3013116;-66
2023/12/22 02:25:45;;;;;;;39.60;16.30;;;;;;;3.72;89.48;97482.34;79735;1295;3012571;-66
2023/12/22 02:28:15;;;;;;;40.60;16.60;;;;;;;4.18;88.67;97472.08;78581;1297;3052074;-65
2023/12/22 02:30:53;;;;;;;39.30;17.70;;;;;;;4.80;86.71;97466.55;79916;1295;3013273;-68
2023/12/22 02:33:20;;;;;;;34.80;16.50;;;;;;;4.81;85.09;97470.81;78595;1292;3048796;-68
2023/12/22 02:35:47;;;;;;;31.40;14.80;;;;;;;4.49;85.61;97472.95;79756;1295;3013055;-67
2023/12/22 02:38:14;;;;;;;29.70;15.50;;;;;;;4.21;86.72;97470.14;79745;1295;3011474;-65
2023/12/22 02:40:42;;;;;;;31.70;15.30;;;;;;;3.88;88.23;97464.70;78468;1294;3025939;-67
2023/12/22 02:43:09;;;;;;;26.00;13.80;;;;;;;3.82;88.95;97460.58;79713;1297;3013694;-67
2023/12/22 02:45:35;;;;;;;28.50;14.60;;;;;;;3.45;90.32;97455.83;79774;1291;3011609;-67
2023/12/22 02:48:04;;;;;;;23.10;11.60;;;;;;;3.30;91.48;97448.30;78527;1292;3028249;-66
2023/12/22 02:50:31;;;;;;;26.50;13.10;;;;;;;3.85;90.60;97437.68;79887;1292;3013259;-67
2023/12/22 02:52:58;;;;;;;28.80;13.90;;;;;;;4.38;87.94;97429.48;79814;1292;3014110;-67
2023/12/22 02:55:26;;;;;;;23.70;12.20;;;;;;;4.41;86.62;97420.64;78585;1292;3051718;-67
2023/12/22 02:57:52;;;;;;;22.60;13.00;;;;;;;4.38;86.73;97420.48;79790;1295;3011636;-71
2023/12/22 03:00:19;;;;;;;24.50;13.00;;;;;;;4.12;86.99;97422.42;79747;1292;3011825;-70
2023/12/22 03:02:47;;;;;;;22.60;12.30;;;;;;;3.71;88.59;97419.37;78499;1296;3026728;-67
2023/12/22 03:05:14;;;;;;;28.00;13.60;;;;;;;3.51;89.95;97415.83;79813;1292;3013079;-70
2023/12/22 03:07:41;;;;;;;29.90;15.30;;;;;;;3.51;90.64;97411.64;79706;1292;3011632;-69
2023/12/22 03:10:09;;;;;;;22.90;10.80;;;;;;;3.31;91.45;97415.58;78587;1296;3026149;-68
2023/12/22 03:12:35;;;;;;;19.30;10.60;;;;;;;3.64;91.08;97408.91;79770;1296;3018309;-65
2023/12/22 03:15:03;;;;;;;23.10;12.40;;;;;;;4.16;88.95;97406.20;79758;1297;3011692;-66
2023/12/22 03:17:31;;;;;;;21.40;10.80;;;;;;;4.03;88.08;97406.02;78610;1297;3049145;-68
2023/12/22 03:19:58;;;;;;;27.60;13.40;;;;;;;3.65;88.95;97401.96;79737;1297;3012915;-66
2023/12/22 03:22:24;;;;;;;28.70;14.50;;;;;;;3.47;90.54;97399.30;79678;1292;3011630;-67
2023/12/22 03:24:52;;;;;;;26.50;14.10;;;;;;;3.18;91.92;97396.79;78513;1292;3025922;-67
2023/12/22 03:27:20;;;;;;;23.50;12.90;;;;;;;3.08;92.94;97397.80;79791;1295;3013081;-68
2023/12/22 03:29:47;;;;;;;21.90;10.90;;;;;;;2.90;94.04;97396.96;79796;1298;3013918;-73
2023/12/22 03:32:14;;;;;;;22.10;11.60;;;;;;;3.41;93.75;97386.31;78564;1297;3048228;-68
2023/12/22 03:34:41;;;;;;;23.60;11.90;;;;;;;3.87;91.42;97386.98;79736;1292;3018566;-69
2023/12/22 03:37:08;;;;;;;24.40;13.30;;;;;;;3.80;90.53;97380.55;79743;1297;3011737;-67
2023/12/22 03:39:36;;;;;;;28.70;14.40;;;;;;;3.75;90.54;97376.69;78703;1295;3052745;-69
2023/12/22 03:42:03;;;;;;;26.00;14.50;;;;;;;3.51;91.20;97364.59;79886;1291;3013168;-67
2023/12/22 03:44:30;;;;;;;34.90;16.50;;;;;;;3.33;91.94;97367.46;79704;1292;3011565;-65
2023/12/22 03:46:58;;;;;;;34.40;16.50;;;;;;;3.08;93.66;97362.14;78545;1291;3026349;-67
2023/12/22 03:49:24;;;;;;;26.40;12.60;;;;;;;3.05;94.23;97357.49;79735;1292;3013774;-65
2023/12/22 03:51:51;;;;;;;23.70;12.60;;;;;;;3.51;93.49;97345.21;79738;1296;3013230;-65
2023/12/22 03:54:19;;;;;;;23.60;12.50;;;;;;;3.97;90.95;97339.70;78560;1291;3028411;-68
2023/12/22 03:56:46;;;;;;;24.90;14.00;;;;;;;3.74;90.46;97337.13;79851;1292;3013490;-68
2023/12/22 03:59:13;;;;;;;28.60;13.80;;;;;;;3.66;90.82;97339.73;79714;1292;3013732;-67
2023/12/22 04:01:41;;;;;;;28.00;14.50;;;;;;;3.52;91.73;97336.69;78545;1292;3026041;-68
2023/12/22 04:04:08;;;;;;;25.40;14.30;;;;;;;3.35;92.50;97337.27;79717;1292;3013675;-67
2023/12/22 04:06:40;;;;;;;26.00;14.90;;;;;;;3.11;94.07;97334.44;79879;1298;3011714;-68
2023/12/22 04:09:09;;;;;;;20.20;10.30;;;;;;;3.15;94.33;97331.11;78548;1297;3050093;-69
2023/12/22 04:11:36;;;;;;;30.10;12.50;;;;;;;3.59;93.55;97328.73;79853;1295;3013544;-69
2023/12/22 04:14:03;;;;;;;25.60;12.10;;;;;;;3.85;91.72;97326.33;79795;1296;3011823;-70
2023/12/22 04:16:31;;;;;;;22.80;12.60;;;;;;;3.79;91.44;97327.62;78653;1295;3048691;-68
2023/12/22 04:18:58;;;;;;;27.30;13.40;;;;;;;3.85;91.58;97328.92;79845;1291;3019118;-67
2023/12/22 04:21:25;;;;;;;27.90;14.10;;;;;;;3.78;91.97;97332.34;79723;1296;3011658;-69
2023/12/22 04:23:52;;;;;;;29.20;14.50;;;;;;;3.59;92.55;97330.27;78550;1297;3027518;-65
2023/12/22 04:26:19;;;;;;;30.80;15.10;;;;;;;3.48;93.48;97327.05;79771;1292;3013195;-66
2023/12/22 04:28:46;;;;;;;23.00;11.40;;;;;;;3.21;94.44;97326.39;79718;1292;3013133;-66
2023/12/22 04:31:13;;;;;;;20.80;11.40;;;;;;;3.49;94.47;97322.48;78922;1297;3026089;-68
2023/12/22 04:33:40;;;;;;;30.10;12.40;;;;;;;3.81;92.72;97318.80;79788;1292;3018694;-69
2023/12/22 04:36:07;;;;;;;22.50;11.60;;;;;;;3.84;92.00;97311.32;79845;1291;3011728;-70
2023/12/22 04:38:35;;;;;;;22.90;12.00;;;;;;;3.85;91.89;97307.65;78508;1298;3028477;-70
2023/12/22 04:41:02;;;;;;;25.60;12.00;;;;;;;3.54;92.76;97305.19;79727;1291;3013190;-68
2023/12/22 04:43:29;;;;;;;24.60;12.80;;;;;;;3.53;93.75;97300.41;79784;1291;3011597;-70
2023/12/22 04:45:57;;;;;;;31.00;14.80;;;;;;;3.53;93.81;97291.55;78601;1292;3049810;-69
2023/12/22 04:48:24;;;;;;;22.10;10.80;;;;;;;3.45;94.61;97283.47;79823;1292;3013011;-69
2023/12/22 04:50:50;;;;;;;18.70;10.30;;;;;;;3.95;93.46;97285.63;79715;1297;3011361;-70
2023/12/22 04:53:18;;;;;;;20.70;11.90;;;;;;;4.44;90.92;97283.52;78523;1295;3026842;-71
2023/12/22 04:55:45;;;;;;;23.70;10.90;;;;;;;4.39;89.66;97283.98;79810;1292;3012789;-70
2023/12/22 04:58:11;;;;;;;18.60;10.70;;;;;;;4.11;90.46;97283.86;79832;1291;3013205;-68
2023/12/22 05:00:40;;;;;;;21.70;10.70;;;;;;;4.02;90.82;97285.38;78741;1297;3027184;-64
2023/12/22 05:03:07;;;;;;;18.60;10.40;;;;;;;3.79;91.27;97285.34;79796;1292;3013769;-64
2023/12/22 05:05:34;;;;;;;21.50;11.10;;;;;;;3.39;92.98;97300.30;79910;1293;3011922;-68
2023/12/22 05:08:02;;;;;;;19.00;10.30;;;;;;;3.41;94.27;97297.59;78823;1297;3051923;-67
2023/12/22 05:10:30;;;;;;;20.40;10.80;;;;;;;3.82;93.67;97299.17;79887;1295;3014544;-68
2023/12/22 05:12:57;;;;;;;22.40;11.20;;;;;;;4.17;91.96;97294.02;79805;1292;3011670;-65
2023/12/22 05:15:25;;;;;;;23.10;11.80;;;;;;;4.19;91.19;97290.23;78576;1292;3047924;-69
2023/12/22 05:17:52;;;;;;;22.20;12.10;;;;;;;4.11;91.62;97286.47;79779;1292;3018626;-67
2023/12/22 05:20:19;;;;;;;22.00;11.70;;;;;;;4.02;91.73;97300.95;79711;1292;3013170;-68
2023/12/22 05:22:47;;;;;;;24.50;12.60;;;;;;;3.83;92.62;97305.15;78644;1292;3052600;-73
2023/12/22 05:25:14;;;;;;;29.60;13.60;;;;;;;3.72;93.29;97304.20;79866;1292;3019836;-66
2023/12/22 05:27:42;;;;;;;24.20;11.70;;;;;;;3.59;94.20;97307.13;80083;1295;3011922;-67
2023/12/22 05:30:11;;;;;;;25.00;12.20;;;;;;;4.01;93.05;97310.38;78743;1296;3048674;-67
2023/12/22 05:32:38;;;;;;;19.00;11.00;;;;;;;4.46;90.34;97315.59;79901;1294;3013070;-69
2023/12/22 05:35:05;;;;;;;23.20;12.30;;;;;;;4.43;89.62;97320.99;79756;1297;3011580;-71
2023/12/22 05:37:33;;;;;;;32.20;15.50;;;;;;;4.22;89.68;97328.66;78652;1297;3053496;-70
2023/12/22 05:40:00;;;;;;;31.70;15.40;;;;;;;3.96;89.93;97335.45;79878;1295;3013532;-69
2023/12/22 05:42:26;;;;;;;25.80;14.80;;;;;;;3.92;89.98;97338.33;79935;1292;3011605;-69
2023/12/22 05:44:54;;;;;;;24.70;14.40;;;;;;;3.69;90.69;97332.58;80307;1292;3025735;-68
2023/12/22 05:47:21;;;;;;;24.20;12.40;;;;;;;3.72;91.33;97324.64;82160;1292;3013241;-65
2023/12/22 05:49:47;;;;;;;27.60;14.90;;;;;;;4.20;89.96;97325.86;81000;1295;3011915;-67
2023/12/22 05:52:15;;;;;;;32.00;15.50;;;;;;;4.35;87.75;97325.71;78750;1296;3028467;-69
2023/12/22 05:54:42;;;;;;;33.10;15.90;;;;;;;4.48;86.80;97319.60;79810;1296;3019184;-68
2023/12/22 05:57:08;;;;;;;28.60;15.70;;;;;;;4.30;86.94;97309.77;79816;1292;3011811;-72
2023/12/22 05:59:36;;;;;;;30.20;15.70;;;;;;;4.38;86.83;97310.09;78687;1293;3026011;-70
2023/12/22 06:02:03;;;;;;;32.50;15.90;;;;;;;4.06;87.56;97306.73;79808;1295;3018763;-71
2023/12/22 06:04:30;;;;;;;25.40;13.90;;;;;;;3.89;88.12;97311.48;80065;1295;3011355;-71
2023/12/22 06:06:59;;;;;;;28.40;16.70;;;;;;;3.79;88.22;97304.38;78552;1291;3027867;-68
2023/12/22 06:09:25;;;;;;;23.00;13.40;;;;;;;3.63;89.65;97304.08;79869;1291;3018349;-68
2023/12/22 06:11:52;;;;;;;29.50;14.40;;;;;;;4.06;88.69;97304.63;79999;1296;3011736;-69
2023/12/22 06:14:20;;;;;;;26.60;14.40;;;;;;;4.34;86.73;97301.33;78760;1291;3028680;-71
2023/12/22 06:16:47;;;;;;;31.20;14.60;;;;;;;4.55;85.50;97297.09;79853;1296;3012961;-68
2023/12/22 06:19:13;;;;;;;23.90;13.60;;;;;;;4.33;84.99;97297.22;79995;1295;3011872;-69
2023/12/22 06:21:41;;;;;;;21.60;12.80;;;;;;;3.90;85.55;97303.46;78629;1298;3026419;-68
2023/12/22 06:24:09;;;;;;;24.90;11.40;;;;;;;3.58;86.19;97300.63;79806;1296;3018635;-68
2023/12/22 06:26:36;;;;;;;16.90;10.40;;;;;;;3.42;86.73;97302.17;79833;1291;3011922;-70
2023/12/22 06:29:04;;;;;;;21.40;12.70;;;;;;;3.51;86.57;97302.59;78746;1292;3048652;-69
2023/12/22 06:31:32;;;;;;;18.40;12.30;;;;;;;3.63;86.54;97303.03;79845;1292;3011523;-68
2023/12/22 06:34:02;;;;;;;19.90;10.30;;;;;;;3.32;87.53;97298.52;79763;1297;3011686;-69
2023/12/22 06:36:30;;;;;;;19.60;10.10;;;;;;;3.73;87.19;97294.77;78614;1297;3052807;-68
2023/12/22 06:38:57;;;;;;;14.90;10.70;;;;;;;3.99;85.51;97302.37;79782;1294;3013359;-69
2023/12/22 06:41:28;;;;;;;16.00;10.70;;;;;;;3.86;85.87;97307.56;79915;1292;3012107;-68
2023/12/22 06:43:57;;;;;;;15.30;10.50;;;;;;;3.81;85.74;97309.42;78706;1296;3049511;-68
2023/12/22 06:46:27;;;;;;;17.00;9.90;;;;;;;3.88;85.38;97309.84;79739;1292;3012854;-64
2023/12/22 06:48:55;;;;;;;20.70;12.20;;;;;;;3.62;86.00;97305.35;78598;1298;3052181;-68
2023/12/22 06:51:22;;;;;;;21.10;12.10;;;;;;;3.55;86.81;97304.64;79898;1298;3013105;-68
2023/12/22 06:53:49;;;;;;;17.00;11.10;;;;;;;3.45;87.35;97304.41;79895;1292;3011689;-64
2023/12/22 06:56:22;;;;;;;14.80;9.80;;;;;;;3.49;87.63;97303.14;78532;1297;3056238;-67
2023/12/22 06:58:48;;;;;;;18.00;10.80;;;;;;;3.53;87.12;97299.20;79990;1291;3011158;-67
2023/12/22 07:01:34;;;;;;;19.70;10.80;;;;;;;4.03;85.69;97301.16;78519;1292;3051512;-69
2023/12/22 07:04:02;;;;;;;15.60;10.20;;;;;;;4.12;84.36;97295.09;78523;1297;3050085;-72
2023/12/22 07:06:31;;;;;;;18.40;10.30;;;;;;;4.19;84.33;97290.97;79809;1297;3012833;-68
2023/12/22 07:09:16;;;;;;;18.30;9.60;;;;;;;3.84;84.96;97291.61;79413;1291;3011717;-71
2023/12/22 07:11:47;;;;;;;16.60;10.20;;;;;;;3.79;85.73;97280.45;78538;1292;3067658;-70
2023/12/22 07:14:15;;;;;;;16.60;10.10;;;;;;;3.64;85.93;97280.08;79845;1298;3011544;-71
2023/12/22 07:16:43;;;;;;;23.00;11.20;;;;;;;3.59;86.20;97280.45;78607;1292;3055014;-67
2023/12/22 07:19:12;;;;;;;18.30;10.60;;;;;;;3.46;86.84;97276.48;79872;1291;3013327;-68
2023/12/22 07:21:41;;;;;;;14.60;10.30;;;;;;;3.60;87.26;97269.84;79328;1297;3011512;-67
2023/12/22 07:24:08;;;;;;;13.60;8.60;;;;;;;4.14;85.14;97270.84;79866;1297;3019129;-68
2023/12/22 07:26:34;;;;;;;15.30;8.90;;;;;;;4.55;82.36;97269.33;79941;1298;3011400;-66
2023/12/22 07:29:02;;;;;;;14.80;9.80;;;;;;;4.45;81.53;97274.21;78621;1291;3027714;-67
2023/12/22 07:31:29;;;;;;;16.40;9.80;;;;;;;4.20;82.53;97268.02;79950;1298;3013039;-70
2023/12/22 07:33:56;;;;;;;16.60;9.90;;;;;;;4.17;82.38;97271.80;79787;1294;3013716;-69
2023/12/22 07:36:24;;;;;;;16.60;10.50;;;;;;;4.16;81.98;97279.89;78469;1295;3026248;-68
2023/12/22 07:38:50;;;;;;;20.50;12.70;;;;;;;3.88;83.19;97283.34;79894;1292;3013519;-69
2023/12/22 07:41:17;;;;;;;24.30;13.00;;;;;;;3.45;85.40;97279.32;79863;1294;3011515;-68
2023/12/22 07:43:45;;;;;;;23.80;13.60;;;;;;;3.49;86.61;97275.36;78674;1297;3026730;-69
2023/12/22 07:46:19;;;;;;;23.50;13.80;;;;;;;3.48;86.92;97272.69;80222;1297;3013049;-68
2023/12/22 07:48:47;;;;;;;16.50;11.10;;;;;;;3.64;86.71;97268.17;78638;1297;3050499;-68
2023/12/22 07:51:14;;;;;;;20.00;11.20;;;;;;;4.14;85.23;97260.61;79879;1297;3013322;-68
2023/12/22 07:53:41;;;;;;;19.20;11.30;;;;;;;4.54;83.29;97256.94;79875;1306;3013038;-67
2023/12/22 07:56:10;;;;;;;21.00;11.70;;;;;;;4.53;81.87;97251.84;78592;1297;3053311;-71
2023/12/22 07:58:37;;;;;;;19.60;12.60;;;;;;;4.14;83.57;97254.05;79961;1292;3011952;-69
2023/12/22 08:01:05;;;;;;;21.60;12.40;;;;;;;3.90;84.96;97253.41;79877;1292;3011570;-70
2023/12/22 08:03:34;;;;;;;19.80;12.20;;;;;;;3.90;85.63;97250.52;78635;1295;3048882;-67
2023/12/22 08:06:00;;;;;;;22.30;12.80;;;;;;;3.79;85.61;97252.95;79866;1297;3013809;-67
2023/12/22 08:08:27;;;;;;;24.40;14.20;;;;;;;3.56;86.50;97252.27;79807;1295;3013201;-70
2023/12/22 08:10:55;;;;;;;20.60;11.50;;;;;;;3.47;87.04;97251.66;78487;1296;3026989;-67
2023/12/22 08:13:21;;;;;;;17.50;10.70;;;;;;;3.47;87.12;97243.16;79754;1292;3012854;-66
2023/12/22 08:15:48;;;;;;;15.30;9.70;;;;;;;4.08;85.15;97232.05;80026;1296;3012124;-67
2023/12/22 08:18:16;;;;;;;18.60;11.10;;;;;;;4.40;82.94;97225.52;78692;1292;3026813;-67
2023/12/22 08:20:43;;;;;;;16.70;11.00;;;;;;;4.25;83.51;97220.13;79742;1298;3012854;-74
2023/12/22 08:23:12;;;;;;;17.60;10.80;;;;;;;4.13;83.31;97222.23;80309;1298;3011355;-70
2023/12/22 08:25:41;;;;;;;19.60;11.50;;;;;;;4.09;83.41;97218.01;78593;1298;3051909;-74
2023/12/22 08:28:08;;;;;;;16.60;11.10;;;;;;;3.87;83.72;97211.86;79921;1297;3013487;-73
2023/12/22 08:30:34;;;;;;;20.50;11.90;;;;;;;3.96;84.35;97207.95;79873;1298;3011907;-72
2023/12/22 08:33:03;;;;;;;19.00;10.50;;;;;;;3.91;84.64;97204.30;78702;1294;3050444;-75
2023/12/22 08:35:30;;;;;;;23.10;12.90;;;;;;;3.56;85.89;97211.59;79877;1292;3012689;-73
2023/12/22 08:37:57;;;;;;;16.60;9.80;;;;;;;3.49;86.17;97205.84;79734;1293;3011685;-72
2023/12/22 08:40:26;;;;;;;16.20;8.70;;;;;;;4.08;84.34;97201.94;78626;1297;3052568;-72
2023/12/22 08:42:59;;;;;;;17.60;10.50;;;;;;;4.07;82.73;97206.89;79811;1292;3013724;-68
2023/12/22 08:45:30;;;;;;;13.40;8.80;;;;;;;4.05;82.71;97206.67;78790;1295;3056805;-70
2023/12/22 08:47:57;;;;;;;15.90;10.10;;;;;;;3.97;82.76;97204.30;79999;1297;3011616;-68
2023/12/22 08:50:26;;;;;;;15.70;10.50;;;;;;;3.90;83.28;97197.13;79291;1297;3012848;-70
2023/12/22 08:52:53;;;;;;;21.40;11.20;;;;;;;3.65;85.32;97193.84;79929;1298;3013574;-68
2023/12/22 08:55:20;;;;;;;15.80;10.50;;;;;;;3.85;84.55;97194.88;79786;1295;3013074;-67
2023/12/22 08:57:48;;;;;;;17.50;10.20;;;;;;;3.62;85.02;97193.14;78710;1298;3026771;-69
2023/12/22 09:00:15;;;;;;;21.30;10.40;;;;;;;3.68;84.58;97184.13;79815;1294;3012766;-68
2023/12/22 09:02:42;;;;;;;15.30;10.20;;;;;;;3.56;84.78;97182.64;79899;1297;3011582;-66
2023/12/22 09:05:10;;;;;;;15.10;9.00;;;;;;;3.46;85.34;97177.59;78514;1297;3026779;-67
2023/12/22 09:07:37;;;;;;;14.80;9.00;;;;;;;3.57;85.57;97183.32;79922;1295;3013184;-71
2023/12/22 09:10:03;;;;;;;15.40;9.60;;;;;;;3.88;84.43;97181.20;79958;1297;3011686;-71
2023/12/22 09:12:32;;;;;;;15.60;8.80;;;;;;;3.81;83.11;97184.27;78510;1298;3028164;-73
2023/12/22 09:14:58;;;;;;;15.40;10.00;;;;;;;3.84;82.39;97181.93;80083;1292;3013866;-72
2023/12/22 09:17:27;;;;;;;16.00;9.80;;;;;;;3.47;83.93;97169.60;79797;1298;3011510;-71
2023/12/22 09:19:55;;;;;;;19.00;10.80;;;;;;;3.46;84.25;97156.18;78514;1296;3052720;-71
2023/12/22 09:22:22;;;;;;;20.00;11.70;;;;;;;3.45;84.48;97151.41;79889;1295;3012728;-71
2023/12/22 09:24:49;;;;;;;19.00;11.10;;;;;;;3.40;84.94;97149.66;79825;1292;3012843;-74
2023/12/22 09:27:17;;;;;;;28.30;15.40;;;;;;;3.35;85.37;97150.53;78713;1295;3026833;-75
2023/12/22 09:29:44;;;;;;;19.30;11.40;;;;;;;3.27;85.99;97147.28;80096;1292;3013080;-69
2023/12/22 09:32:11;;;;;;;17.40;10.50;;;;;;;3.29;86.63;97145.35;80158;1293;3011713;-68
2023/12/22 09:34:40;;;;;;;17.00;10.00;;;;;;;3.85;84.69;97139.82;78951;1295;3053502;-71
2023/12/22 09:37:07;;;;;;;15.80;9.80;;;;;;;3.94;83.86;97132.43;80042;1297;3013169;-70
2023/12/22 09:39:34;;;;;;;17.70;11.10;;;;;;;3.98;83.79;97122.13;79964;1295;3011906;-70
2023/12/22 09:42:05;;;;;;;19.30;11.00;;;;;;;3.89;84.01;97125.52;78566;1292;3068624;-70
2023/12/22 09:44:33;;;;;;;18.80;11.30;;;;;;;3.72;83.80;97128.29;80102;1292;3011673;-71
2023/12/22 09:47:03;;;;;;;19.60;12.30;;;;;;;3.34;84.77;97131.23;78656;1305;3027169;-75
2023/12/22 09:49:30;;;;;;;19.70;12.10;;;;;;;3.18;85.60;97120.84;79896;1292;3013108;-66
2023/12/22 09:51:57;;;;;;;22.30;12.10;;;;;;;3.22;85.88;97124.79;79614;1304;3011397;-69
2023/12/22 09:54:25;;;;;;;18.90;11.80;;;;;;;3.37;85.52;97122.52;78703;1297;3051198;-70
2023/12/22 09:56:52;;;;;;;15.20;9.80;;;;;;;3.35;85.14;97124.73;79632;1298;3014143;-70
2023/12/22 09:59:19;;;;;;;15.90;10.50;;;;;;;3.82;83.85;97121.98;79867;1294;3012208;-68
2023/12/22 10:01:47;;;;;;;15.40;9.20;;;;;;;4.12;81.91;97120.40;78611;1293;3056832;-70
2023/12/22 10:04:14;;;;;;;17.50;10.60;;;;;;;4.06;81.54;97124.82;79836;1292;3013763;-69
2023/12/22 10:06:41;;;;;;;17.60;11.20;;;;;;;3.83;81.63;97119.69;79893;1296;3011564;-70
2023/12/22 10:09:11;;;;;;;15.90;10.00;;;;;;;3.70;82.27;97114.71;78571;1295;3025920;-71
2023/12/22 10:11:38;;;;;;;13.70;9.50;;;;;;;3.75;82.17;97104.50;79830;1296;3013801;-70
2023/12/22 10:14:04;;;;;;;15.70;9.70;;;;;;;3.41;83.16;97099.06;79721;1292;3013123;-69
2023/12/22 10:16:32;;;;;;;15.60;10.40;;;;;;;3.30;84.27;97098.58;78410;1293;3056280;-69
2023/12/22 10:19:00;;;;;;;21.10;11.00;;;;;;;3.26;84.27;97092.45;79904;1291;3018446;-70
2023/12/22 10:21:26;;;;;;;16.70;11.10;;;;;;;3.08;84.36;97087.79;79829;1295;3011887;-69
2023/12/22 10:23:54;;;;;;;17.90;9.50;;;;;;;3.12;84.93;97080.13;78583;1295;3052028;-68
2023/12/22 10:26:21;;;;;;;16.80;9.20;;;;;;;3.66;83.56;97079.98;79902;1292;3013273;-66
2023/12/22 10:28:49;;;;;;;14.90;9.90;;;;;;;3.99;81.55;97078.91;79768;1291;3011686;-69
2023/12/22 10:31:17;;;;;;;16.60;9.30;;;;;;;4.06;80.96;97078.35;78648;1292;3055766;-69
2023/12/22 10:33:44;;;;;;;13.60;9.00;;;;;;;3.75;81.24;97072.61;79806;1295;3013650;-72
2023/12/22 10:36:11;;;;;;;12.70;8.90;;;;;;;3.54;81.19;97065.80;79827;1292;3011433;-70
2023/12/22 10:38:39;;;;;;;15.00;9.80;;;;;;;3.42;81.82;97072.37;78494;1296;3026285;-70
2023/12/22 10:41:07;;;;;;;17.00;10.80;;;;;;;3.37;82.50;97069.92;79842;1291;3014865;-68
2023/12/22 10:43:40;;;;;;;21.50;12.10;;;;;;;3.21;83.66;97070.33;79801;1292;3011550;-70
2023/12/22 10:46:08;;;;;;;18.50;10.10;;;;;;;3.33;83.69;97066.38;78731;1295;3057106;-71
2023/12/22 10:48:35;;;;;;;16.40;11.00;;;;;;;3.33;83.63;97070.88;79826;1292;3013305;-73
2023/12/22 10:51:01;;;;;;;17.10;10.10;;;;;;;3.24;84.53;97075.48;79988;1292;3011679;-70
2023/12/22 10:53:31;;;;;;;18.40;11.30;;;;;;;3.75;83.66;97068.16;78810;1292;3052792;-72
2023/12/22 10:55:57;;;;;;;18.70;10.60;;;;;;;4.20;81.50;97065.81;79846;1292;3014703;-71
2023/12/22 10:58:24;;;;;;;21.10;11.40;;;;;;;4.33;80.69;97068.16;79848;1294;3011511;-71
2023/12/22 11:00:52;;;;;;;19.30;10.80;;;;;;;4.26;79.70;97069.32;78588;1292;3056505;-71
2023/12/22 11:03:19;;;;;;;19.00;11.40;;;;;;;4.19;79.43;97069.52;79794;1293;3013132;-71
2023/12/22 11:05:47;;;;;;;18.00;10.30;;;;;;;3.74;80.97;97073.73;79809;1293;3011567;-70
2023/12/22 11:08:15;;;;;;;18.80;9.40;;;;;;;3.56;82.13;97066.73;78574;1292;3052124;-70
2023/12/22 11:14:01;;;;;;;14.80;9.60;;;;;;;3.58;81.92;97057.55;80182;1305;3013464;-69